Terminal Aerodrome Forecast
Issued by NWS Tallahassee, FL

Home | Current Version | Previous Version | Text Only | Print | Product List | Glossary On
Versions: 1 2 3 4 5 6 7 8 9 10 11 12 13
000
FTUS42 KTAE 202300
TAFTLH
TAF
KTLH 202332Z 2100/2124 05004KT P6SM OVC050
     FM210600 05005KT P6SM BKN015 OVC025
     FM210800 06006KT P6SM OVC008
     FM211500 08006KT P6SM OVC010
     FM211800 07005KT 6SM -RA OVC020=

USA.gov is the U.S. government's official web portal to all federal, state and local government web resources and services.